sensor_id;sensor_type;location;lat;lon;timestamp;pressure;altitude;pressure_sealevel;temperature;humidity
10460;BME280;54412;51.206;6.888;2023-03-22T00:00:54;100403.56;;;12.96;65.87
10460;BME280;54412;51.206;6.888;2023-03-22T00:03:22;100406.69;;;12.89;65.92
10460;BME280;54412;51.206;6.888;2023-03-22T00:05:47;100400.25;;;12.93;65.86
10460;BME280;54412;51.206;6.888;2023-03-22T00:08:13;100393.75;;;12.84;66.05
10460;BME280;54412;51.206;6.888;2023-03-22T00:10:40;100397.97;;;12.87;66.03
10460;BME280;54412;51.206;6.888;2023-03-22T00:13:08;100397.72;;;12.77;66.62
10460;BME280;54412;51.206;6.888;2023-03-22T00:15:35;100394.75;;;12.96;66.04
10460;BME280;54412;51.206;6.888;2023-03-22T00:18:01;100395.44;;;12.85;66.23
10460;BME280;54412;51.206;6.888;2023-03-22T00:20:30;100398.75;;;13.03;65.78
10460;BME280;54412;51.206;6.888;2023-03-22T00:22:59;100390.63;;;12.78;67.04
10460;BME280;54412;51.206;6.888;2023-03-22T00:25:25;100391.25;;;12.95;66.15
10460;BME280;54412;51.206;6.888;2023-03-22T00:27:51;100384.66;;;12.88;66.23
10460;BME280;54412;51.206;6.888;2023-03-22T00:30:18;100383.16;;;12.84;66.60
10460;BME280;54412;51.206;6.888;2023-03-22T00:32:43;100388.16;;;12.89;66.74
10460;BME280;54412;51.206;6.888;2023-03-22T00:35:10;100370.75;;;12.85;67.23
10460;BME280;54412;51.206;6.888;2023-03-22T00:37:37;100373.97;;;12.76;67.32
10460;BME280;54412;51.206;6.888;2023-03-22T00:40:10;100373.16;;;12.75;67.46
10460;BME280;54412;51.206;6.888;2023-03-22T00:42:38;100375.13;;;12.86;67.26
10460;BME280;54412;51.206;6.888;2023-03-22T00:45:08;100369.09;;;12.70;68.09
10460;BME280;54412;51.206;6.888;2023-03-22T00:47:35;100356.31;;;12.76;67.77
10460;BME280;54412;51.206;6.888;2023-03-22T00:50:01;100353.16;;;12.98;66.92
10460;BME280;54412;51.206;6.888;2023-03-22T00:52:27;100348.94;;;12.81;67.57
10460;BME280;54412;51.206;6.888;2023-03-22T00:54:54;100341.94;;;12.80;67.50
10460;BME280;54412;51.206;6.888;2023-03-22T00:57:20;100342.53;;;12.71;67.86
10460;BME280;54412;51.206;6.888;2023-03-22T00:59:46;100340.16;;;12.67;68.19
10460;BME280;54412;51.206;6.888;2023-03-22T01:02:13;100334.41;;;12.60;68.58
10460;BME280;54412;51.206;6.888;2023-03-22T01:04:40;100336.69;;;12.66;68.15
10460;BME280;54412;51.206;6.888;2023-03-22T01:07:15;100335.28;;;12.60;68.28
10460;BME280;54412;51.206;6.888;2023-03-22T01:09:47;100331.88;;;12.58;68.68
10460;BME280;54412;51.206;6.888;2023-03-22T01:12:14;100322.13;;;12.73;68.15
10460;BME280;54412;51.206;6.888;2023-03-22T01:14:40;100322.28;;;12.70;68.18
10460;BME280;54412;51.206;6.888;2023-03-22T01:17:06;100330.00;;;12.60;68.42
10460;BME280;54412;51.206;6.888;2023-03-22T01:19:34;100328.00;;;12.64;68.33
10460;BME280;54412;51.206;6.888;2023-03-22T01:22:02;100327.91;;;12.51;69.10
10460;BME280;54412;51.206;6.888;2023-03-22T01:24:28;100324.22;;;12.40;69.25
10460;BME280;54412;51.206;6.888;2023-03-22T01:26:54;100325.38;;;12.50;69.20
10460;BME280;54412;51.206;6.888;2023-03-22T01:29:20;100314.19;;;12.45;69.37
10460;BME280;54412;51.206;6.888;2023-03-22T01:31:45;100303.28;;;12.37;69.47
10460;BME280;54412;51.206;6.888;2023-03-22T01:34:11;100298.91;;;12.50;69.24
10460;BME280;54412;51.206;6.888;2023-03-22T01:36:37;100297.19;;;12.49;69.28
10460;BME280;54412;51.206;6.888;2023-03-22T01:39:03;100300.91;;;12.18;70.49
10460;BME280;54412;51.206;6.888;2023-03-22T01:41:29;100298.47;;;12.15;70.62
10460;BME280;54412;51.206;6.888;2023-03-22T01:44:16;100294.97;;;12.01;71.04
10460;BME280;54412;51.206;6.888;2023-03-22T01:46:46;100290.16;;;12.35;69.81
10460;BME280;54412;51.206;6.888;2023-03-22T01:51:52;100285.91;;;12.05;71.17
10460;BME280;54412;51.206;6.888;2023-03-22T01:54:39;100278.06;;;12.03;71.07
10460;BME280;54412;51.206;6.888;2023-03-22T01:57:07;100276.34;;;12.16;70.61
10460;BME280;54412;51.206;6.888;2023-03-22T01:59:34;100273.06;;;12.13;70.72
10460;BME280;54412;51.206;6.888;2023-03-22T02:02:00;100265.13;;;12.13;71.07
10460;BME280;54412;51.206;6.888;2023-03-22T02:04:32;100264.47;;;11.95;71.50
10460;BME280;54412;51.206;6.888;2023-03-22T02:07:05;100270.59;;;12.10;71.25
10460;BME280;54412;51.206;6.888;2023-03-22T02:09:35;100270.59;;;12.24;70.35
10460;BME280;54412;51.206;6.888;2023-03-22T02:15:23;100265.69;;;12.04;70.99
10460;BME280;54412;51.206;6.888;2023-03-22T02:18:24;100254.38;;;12.16;70.66
10460;BME280;54412;51.206;6.888;2023-03-22T02:21:16;100250.13;;;12.13;70.98
10460;BME280;54412;51.206;6.888;2023-03-22T02:24:08;100243.41;;;12.08;71.33
10460;BME280;54412;51.206;6.888;2023-03-22T02:29:59;100243.13;;;11.98;71.50
10460;BME280;54412;51.206;6.888;2023-03-22T02:35:54;100239.34;;;11.88;71.60
10460;BME280;54412;51.206;6.888;2023-03-22T02:39:03;100234.44;;;11.96;71.70
10460;BME280;54412;51.206;6.888;2023-03-22T02:42:09;100235.03;;;11.87;71.55
10460;BME280;54412;51.206;6.888;2023-03-22T02:48:02;100231.44;;;11.88;72.03
10460;BME280;54412;51.206;6.888;2023-03-22T02:50:58;100223.97;;;11.67;72.63
10460;BME280;54412;51.206;6.888;2023-03-22T02:57:10;100210.06;;;11.63;72.69
10460;BME280;54412;51.206;6.888;2023-03-22T02:59:40;100210.00;;;11.65;72.92
10460;BME280;54412;51.206;6.888;2023-03-22T03:02:11;100208.84;;;11.54;73.27
10460;BME280;54412;51.206;6.888;2023-03-22T03:04:45;100215.34;;;11.63;72.87
10460;BME280;54412;51.206;6.888;2023-03-22T03:07:18;100211.38;;;11.56;73.24
10460;BME280;54412;51.206;6.888;2023-03-22T03:09:47;100204.78;;;11.49;73.82
10460;BME280;54412;51.206;6.888;2023-03-22T03:12:21;100208.25;;;11.49;73.60
10460;BME280;54412;51.206;6.888;2023-03-22T03:14:48;100202.28;;;11.46;73.81
10460;BME280;54412;51.206;6.888;2023-03-22T03:20:09;100210.59;;;11.40;74.14
10460;BME280;54412;51.206;6.888;2023-03-22T03:26:18;100209.94;;;11.36;74.11
10460;BME280;54412;51.206;6.888;2023-03-22T03:29:01;100206.91;;;11.42;74.09
10460;BME280;54412;51.206;6.888;2023-03-22T03:34:31;100203.13;;;11.32;74.44
10460;BME280;54412;51.206;6.888;2023-03-22T03:37:08;100197.69;;;11.49;73.65
10460;BME280;54412;51.206;6.888;2023-03-22T03:39:42;100198.22;;;11.26;74.41
10460;BME280;54412;51.206;6.888;2023-03-22T03:42:14;100192.94;;;11.26;74.90
10460;BME280;54412;51.206;6.888;2023-03-22T03:44:41;100189.19;;;11.44;73.81
10460;BME280;54412;51.206;6.888;2023-03-22T03:47:08;100193.56;;;11.45;74.13
10460;BME280;54412;51.206;6.888;2023-03-22T03:49:35;100184.31;;;11.38;74.15
10460;BME280;54412;51.206;6.888;2023-03-22T03:52:03;100188.72;;;11.38;74.38
10460;BME280;54412;51.206;6.888;2023-03-22T03:54:29;100192.13;;;11.40;74.16
10460;BME280;54412;51.206;6.888;2023-03-22T03:56:55;100190.69;;;11.34;74.62
10460;BME280;54412;51.206;6.888;2023-03-22T03:59:21;100188.25;;;11.45;73.79
10460;BME280;54412;51.206;6.888;2023-03-22T04:01:47;100191.34;;;11.24;74.96
10460;BME280;54412;51.206;6.888;2023-03-22T04:04:20;100191.84;;;11.44;74.15
10460;BME280;54412;51.206;6.888;2023-03-22T04:06:55;100191.72;;;11.32;74.61
10460;BME280;54412;51.206;6.888;2023-03-22T04:09:24;100198.06;;;11.29;74.67
10460;BME280;54412;51.206;6.888;2023-03-22T04:11:51;100199.47;;;11.35;74.72
10460;BME280;54412;51.206;6.888;2023-03-22T04:14:18;100201.81;;;11.39;74.28
10460;BME280;54412;51.206;6.888;2023-03-22T04:16:43;100198.94;;;11.44;73.86
10460;BME280;54412;51.206;6.888;2023-03-22T04:19:09;100197.00;;;11.46;73.76
10460;BME280;54412;51.206;6.888;2023-03-22T04:21:35;100196.53;;;11.39;74.23
10460;BME280;54412;51.206;6.888;2023-03-22T04:24:01;100200.31;;;11.49;73.89
10460;BME280;54412;51.206;6.888;2023-03-22T04:26:27;100190.50;;;11.51;73.87
10460;BME280;54412;51.206;6.888;2023-03-22T04:28:53;100198.84;;;11.45;74.11
10460;BME280;54412;51.206;6.888;2023-03-22T04:31:18;100199.66;;;11.46;74.26
10460;BME280;54412;51.206;6.888;2023-03-22T04:33:44;100198.84;;;11.59;73.67
10460;BME280;54412;51.206;6.888;2023-03-22T04:36:13;100193.75;;;11.56;73.74
10460;BME280;54412;51.206;6.888;2023-03-22T04:38:42;100195.88;;;11.66;73.82
10460;BME280;54412;51.206;6.888;2023-03-22T04:41:09;100193.00;;;11.54;73.93
10460;BME280;54412;51.206;6.888;2023-03-22T04:43:35;100179.91;;;11.67;73.59
10460;BME280;54412;51.206;6.888;2023-03-22T04:46:08;100170.72;;;11.58;73.71
10460;BME280;54412;51.206;6.888;2023-03-22T04:48:36;100176.94;;;11.57;73.96
10460;BME280;54412;51.206;6.888;2023-03-22T04:51:04;100175.06;;;11.59;73.90
10460;BME280;54412;51.206;6.888;2023-03-22T04:53:31;100171.97;;;11.53;73.80
10460;BME280;54412;51.206;6.888;2023-03-22T04:55:57;100158.16;;;11.48;74.18
10460;BME280;54412;51.206;6.888;2023-03-22T04:58:24;100168.00;;;11.60;73.59
10460;BME280;54412;51.206;6.888;2023-03-22T05:00:52;100172.13;;;11.50;74.17
10460;BME280;54412;51.206;6.888;2023-03-22T05:03:19;100179.78;;;11.54;73.89
10460;BME280;54412;51.206;6.888;2023-03-22T05:05:57;100181.25;;;11.74;73.16
10460;BME280;54412;51.206;6.888;2023-03-22T05:08:25;100178.78;;;11.85;72.82
10460;BME280;54412;51.206;6.888;2023-03-22T05:10:53;100184.91;;;11.72;73.45
10460;BME280;54412;51.206;6.888;2023-03-22T05:13:22;100176.28;;;11.54;74.18
10460;BME280;54412;51.206;6.888;2023-03-22T05:15:49;100180.94;;;11.65;73.83
10460;BME280;54412;51.206;6.888;2023-03-22T05:18:18;100165.94;;;11.51;74.54
10460;BME280;54412;51.206;6.888;2023-03-22T05:20:47;100164.09;;;11.51;73.91
10460;BME280;54412;51.206;6.888;2023-03-22T05:23:14;100169.88;;;11.44;74.53
10460;BME280;54412;51.206;6.888;2023-03-22T05:25:44;100174.78;;;11.50;74.15
10460;BME280;54412;51.206;6.888;2023-03-22T05:28:12;100174.56;;;11.39;74.83
10460;BME280;54412;51.206;6.888;2023-03-22T05:30:40;100178.34;;;11.35;74.85
10460;BME280;54412;51.206;6.888;2023-03-22T05:33:07;100181.00;;;11.35;74.98
10460;BME280;54412;51.206;6.888;2023-03-22T05:35:38;100179.88;;;11.53;74.32
10460;BME280;54412;51.206;6.888;2023-03-22T05:38:05;100174.00;;;11.34;74.97
10460;BME280;54412;51.206;6.888;2023-03-22T05:40:32;100172.13;;;11.50;75.14
10460;BME280;54412;51.206;6.888;2023-03-22T05:42:58;100171.97;;;11.53;75.58
10460;BME280;54412;51.206;6.888;2023-03-22T05:45:25;100168.03;;;11.74;75.53
10460;BME280;54412;51.206;6.888;2023-03-22T05:47:51;100173.41;;;11.73;74.61
10460;BME280;54412;51.206;6.888;2023-03-22T05:50:21;100171.97;;;11.95;74.15
10460;BME280;54412;51.206;6.888;2023-03-22T05:52:47;100174.59;;;11.95;74.08
10460;BME280;54412;51.206;6.888;2023-03-22T05:55:15;100171.97;;;11.95;73.87
10460;BME280;54412;51.206;6.888;2023-03-22T05:57:45;100170.66;;;11.88;74.02
10460;BME280;54412;51.206;6.888;2023-03-22T06:00:17;100166.66;;;12.09;73.70
10460;BME280;54412;51.206;6.888;2023-03-22T06:02:46;100162.53;;;11.91;73.24
10460;BME280;54412;51.206;6.888;2023-03-22T06:05:14;100174.25;;;11.73;74.01
10460;BME280;54412;51.206;6.888;2023-03-22T06:07:41;100173.25;;;11.46;74.94
10460;BME280;54412;51.206;6.888;2023-03-22T06:10:11;100166.47;;;11.56;74.69
10460;BME280;54412;51.206;6.888;2023-03-22T06:12:37;100171.81;;;11.40;75.64
10460;BME280;54412;51.206;6.888;2023-03-22T06:15:04;100161.97;;;11.44;75.65
10460;BME280;54412;51.206;6.888;2023-03-22T06:17:30;100171.66;;;11.43;75.68
10460;BME280;54412;51.206;6.888;2023-03-22T06:19:56;100180.50;;;11.42;75.81
10460;BME280;54412;51.206;6.888;2023-03-22T06:22:22;100174.31;;;11.57;75.57
10460;BME280;54412;51.206;6.888;2023-03-22T06:24:48;100183.38;;;11.68;74.92
10460;BME280;54412;51.206;6.888;2023-03-22T06:27:15;100182.88;;;11.61;75.67
10460;BME280;54412;51.206;6.888;2023-03-22T06:29:43;100191.50;;;11.79;74.64
10460;BME280;54412;51.206;6.888;2023-03-22T06:32:09;100186.31;;;11.77;74.78
10460;BME280;54412;51.206;6.888;2023-03-22T06:34:35;100180.78;;;11.82;74.60
10460;BME280;54412;51.206;6.888;2023-03-22T06:37:00;100189.81;;;11.78;74.98
10460;BME280;54412;51.206;6.888;2023-03-22T06:39:27;100173.13;;;11.77;74.64
10460;BME280;54412;51.206;6.888;2023-03-22T06:41:52;100177.38;;;11.80;74.93
10460;BME280;54412;51.206;6.888;2023-03-22T06:44:18;100178.13;;;11.82;74.61
10460;BME280;54412;51.206;6.888;2023-03-22T06:46:44;100179.03;;;11.95;74.10
10460;BME280;54412;51.206;6.888;2023-03-22T06:49:10;100171.88;;;11.97;74.04
10460;BME280;54412;51.206;6.888;2023-03-22T06:51:35;100170.56;;;11.90;74.16
10460;BME280;54412;51.206;6.888;2023-03-22T06:54:01;100163.19;;;11.95;74.17
10460;BME280;54412;51.206;6.888;2023-03-22T06:56:27;100173.75;;;12.09;73.83
10460;BME280;54412;51.206;6.888;2023-03-22T06:58:53;100171.28;;;12.06;73.75
10460;BME280;54412;51.206;6.888;2023-03-22T07:01:23;100169.03;;;12.14;73.56
10460;BME280;54412;51.206;6.888;2023-03-22T07:03:50;100170.16;;;12.10;73.67
10460;BME280;54412;51.206;6.888;2023-03-22T07:06:15;100172.97;;;12.21;73.06
10460;BME280;54412;51.206;6.888;2023-03-22T07:08:41;100162.13;;;12.11;73.36
10460;BME280;54412;51.206;6.888;2023-03-22T07:11:07;100160.22;;;12.13;73.58
10460;BME280;54412;51.206;6.888;2023-03-22T07:13:33;100159.00;;;12.19;73.50
10460;BME280;54412;51.206;6.888;2023-03-22T07:16:01;100151.22;;;12.30;72.86
10460;BME280;54412;51.206;6.888;2023-03-22T07:18:28;100158.78;;;12.48;71.92
10460;BME280;54412;51.206;6.888;2023-03-22T07:20:54;100150.31;;;12.43;72.15
10460;BME280;54412;51.206;6.888;2023-03-22T07:23:20;100153.50;;;12.48;72.05
10460;BME280;54412;51.206;6.888;2023-03-22T07:25:47;100149.22;;;12.60;71.99
10460;BME280;54412;51.206;6.888;2023-03-22T07:28:14;100146.34;;;12.77;71.24
10460;BME280;54412;51.206;6.888;2023-03-22T07:30:40;100149.00;;;12.90;70.79
10460;BME280;54412;51.206;6.888;2023-03-22T07:33:08;100146.88;;;12.95;71.35
10460;BME280;54412;51.206;6.888;2023-03-22T07:35:35;100157.03;;;13.01;70.33
10460;BME280;54412;51.206;6.888;2023-03-22T07:38:03;100140.22;;;13.02;69.82
10460;BME280;54412;51.206;6.888;2023-03-22T07:40:29;100141.66;;;13.07;69.49
10460;BME280;54412;51.206;6.888;2023-03-22T07:42:55;100132.75;;;13.21;69.07
10460;BME280;54412;51.206;6.888;2023-03-22T07:45:24;100136.03;;;13.24;68.86
10460;BME280;54412;51.206;6.888;2023-03-22T07:47:50;100138.56;;;13.38;68.16
10460;BME280;54412;51.206;6.888;2023-03-22T07:50:17;100134.22;;;13.62;67.23
10460;BME280;54412;51.206;6.888;2023-03-22T07:52:43;100142.72;;;13.55;66.14
10460;BME280;54412;51.206;6.888;2023-03-22T07:55:12;100147.50;;;13.37;65.85
10460;BME280;54412;51.206;6.888;2023-03-22T07:57:39;100148.13;;;13.16;66.57
10460;BME280;54412;51.206;6.888;2023-03-22T08:00:07;100149.38;;;13.23;66.58
10460;BME280;54412;51.206;6.888;2023-03-22T08:02:35;100148.13;;;13.28;65.97
10460;BME280;54412;51.206;6.888;2023-03-22T08:05:02;100144.09;;;13.23;66.73
10460;BME280;54412;51.206;6.888;2023-03-22T08:07:28;100147.06;;;13.18;65.45
10460;BME280;54412;51.206;6.888;2023-03-22T08:09:54;100155.19;;;13.15;65.18
10460;BME280;54412;51.206;6.888;2023-03-22T08:12:21;100150.00;;;13.14;65.20
10460;BME280;54412;51.206;6.888;2023-03-22T08:14:46;100158.94;;;13.25;65.29
10460;BME280;54412;51.206;6.888;2023-03-22T08:17:16;100157.56;;;13.20;64.89
10460;BME280;54412;51.206;6.888;2023-03-22T08:19:43;100147.38;;;13.14;65.10
10460;BME280;54412;51.206;6.888;2023-03-22T08:22:09;100158.56;;;13.05;64.91
10460;BME280;54412;51.206;6.888;2023-03-22T08:24:36;100149.16;;;13.13;64.80
10460;BME280;54412;51.206;6.888;2023-03-22T08:27:02;100157.81;;;13.03;65.01
10460;BME280;54412;51.206;6.888;2023-03-22T08:29:28;100157.81;;;13.03;65.39
10460;BME280;54412;51.206;6.888;2023-03-22T08:31:54;100151.91;;;13.12;65.15
10460;BME280;54412;51.206;6.888;2023-03-22T08:34:20;100167.91;;;13.23;64.73
10460;BME280;54412;51.206;6.888;2023-03-22T08:36:46;100154.91;;;13.20;65.15
10460;BME280;54412;51.206;6.888;2023-03-22T08:39:12;100151.81;;;13.26;64.98
10460;BME280;54412;51.206;6.888;2023-03-22T08:41:39;100158.19;;;13.36;64.59
10460;BME280;54412;51.206;6.888;2023-03-22T08:44:05;100159.88;;;13.37;64.58
10460;BME280;54412;51.206;6.888;2023-03-22T08:46:31;100158.72;;;13.41;63.93
10460;BME280;54412;51.206;6.888;2023-03-22T08:48:56;100160.09;;;13.46;62.99
10460;BME280;54412;51.206;6.888;2023-03-22T08:51:25;100166.56;;;13.42;63.24
10460;BME280;54412;51.206;6.888;2023-03-22T08:53:50;100159.78;;;13.38;63.30
10460;BME280;54412;51.206;6.888;2023-03-22T08:56:17;100157.75;;;13.42;62.77
10460;BME280;54412;51.206;6.888;2023-03-22T08:58:43;100159.88;;;13.24;61.89
10460;BME280;54412;51.206;6.888;2023-03-22T09:01:16;100159.22;;;13.08;62.00
10460;BME280;54412;51.206;6.888;2023-03-22T09:03:42;100152.78;;;13.25;61.84
10460;BME280;54412;51.206;6.888;2023-03-22T09:06:12;100148.63;;;13.21;61.47
10460;BME280;54412;51.206;6.888;2023-03-22T09:08:38;100171.00;;;13.42;61.70
10460;BME280;54412;51.206;6.888;2023-03-22T09:11:08;100168.38;;;13.80;60.69
10460;BME280;54412;51.206;6.888;2023-03-22T09:13:34;100157.66;;;13.81;61.02
10460;BME280;54412;51.206;6.888;2023-03-22T09:16:00;100169.06;;;13.82;62.62
10460;BME280;54412;51.206;6.888;2023-03-22T09:18:26;100166.88;;;13.50;61.04
10460;BME280;54412;51.206;6.888;2023-03-22T09:20:52;100151.94;;;13.49;61.52
10460;BME280;54412;51.206;6.888;2023-03-22T09:23:19;100154.28;;;13.67;60.57
10460;BME280;54412;51.206;6.888;2023-03-22T09:25:46;100155.94;;;13.80;61.03
10460;BME280;54412;51.206;6.888;2023-03-22T09:28:12;100168.31;;;14.05;61.88
10460;BME280;54412;51.206;6.888;2023-03-22T09:30:38;100164.91;;;14.15;57.75
10460;BME280;54412;51.206;6.888;2023-03-22T09:33:04;100169.28;;;13.91;58.43
10460;BME280;54412;51.206;6.888;2023-03-22T09:35:31;100172.31;;;14.23;58.22
10460;BME280;54412;51.206;6.888;2023-03-22T09:37:58;100176.00;;;14.20;57.03
10460;BME280;54412;51.206;6.888;2023-03-22T09:40:28;100159.59;;;14.15;56.38
10460;BME280;54412;51.206;6.888;2023-03-22T09:43:00;100147.97;;;13.93;56.64
10460;BME280;54412;51.206;6.888;2023-03-22T09:45:41;100164.94;;;14.03;56.19
10460;BME280;54412;51.206;6.888;2023-03-22T09:48:27;100152.19;;;14.08;56.66
10460;BME280;54412;51.206;6.888;2023-03-22T09:50:55;100161.66;;;13.99;56.73
10460;BME280;54412;51.206;6.888;2023-03-22T09:53:24;100166.00;;;13.88;56.28
10460;BME280;54412;51.206;6.888;2023-03-22T09:56:02;100161.13;;;13.69;56.96
10460;BME280;54412;51.206;6.888;2023-03-22T09:59:20;100164.09;;;13.90;55.84
10460;BME280;54412;51.206;6.888;2023-03-22T10:01:57;100152.25;;;14.19;54.77
10460;BME280;54412;51.206;6.888;2023-03-22T10:04:41;100162.44;;;14.12;55.09
10460;BME280;54412;51.206;6.888;2023-03-22T10:10:12;100134.41;;;14.33;54.49
10460;BME280;54412;51.206;6.888;2023-03-22T10:12:52;100144.06;;;14.34;54.77
10460;BME280;54412;51.206;6.888;2023-03-22T10:15:39;100142.88;;;14.97;53.69
10460;BME280;54412;51.206;6.888;2023-03-22T10:18:14;100137.53;;;15.31;53.28
10460;BME280;54412;51.206;6.888;2023-03-22T10:20:51;100138.53;;;15.30;52.93
10460;BME280;54412;51.206;6.888;2023-03-22T10:26:39;100141.34;;;14.71;53.93
10460;BME280;54412;51.206;6.888;2023-03-22T10:31:54;100142.88;;;14.62;54.67
10460;BME280;54412;51.206;6.888;2023-03-22T10:34:28;100133.56;;;14.56;54.17
10460;BME280;54412;51.206;6.888;2023-03-22T10:36:57;100132.44;;;14.83;54.29
10460;BME280;54412;51.206;6.888;2023-03-22T10:39:43;100141.19;;;14.61;54.29
10460;BME280;54412;51.206;6.888;2023-03-22T10:42:17;100124.63;;;14.57;54.35
10460;BME280;54412;51.206;6.888;2023-03-22T10:44:50;100137.13;;;14.44;54.97
10460;BME280;54412;51.206;6.888;2023-03-22T10:47:26;100135.53;;;14.42;54.59
10460;BME280;54412;51.206;6.888;2023-03-22T10:49:55;100137.03;;;14.46;54.66
10460;BME280;54412;51.206;6.888;2023-03-22T10:54:51;100134.25;;;14.71;54.15
10460;BME280;54412;51.206;6.888;2023-03-22T10:57:16;100132.44;;;14.48;54.34
10460;BME280;54412;51.206;6.888;2023-03-22T10:59:49;100141.03;;;14.51;53.52
10460;BME280;54412;51.206;6.888;2023-03-22T11:02:44;100145.09;;;14.44;52.87
10460;BME280;54412;51.206;6.888;2023-03-22T11:05:25;100137.59;;;14.26;53.68
10460;BME280;54412;51.206;6.888;2023-03-22T11:07:52;100141.53;;;14.33;53.71
10460;BME280;54412;51.206;6.888;2023-03-22T11:10:26;100123.19;;;14.30;54.01
10460;BME280;54412;51.206;6.888;2023-03-22T11:13:16;100134.81;;;14.40;54.25
10460;BME280;54412;51.206;6.888;2023-03-22T11:16:01;100144.69;;;14.38;53.94
10460;BME280;54412;51.206;6.888;2023-03-22T11:18:31;100119.13;;;14.24;53.56
10460;BME280;54412;51.206;6.888;2023-03-22T11:21:10;100131.97;;;14.30;54.24
10460;BME280;54412;51.206;6.888;2023-03-22T11:23:41;100143.16;;;14.46;53.37
10460;BME280;54412;51.206;6.888;2023-03-22T11:26:13;100135.16;;;14.23;53.83
10460;BME280;54412;51.206;6.888;2023-03-22T11:28:49;100141.13;;;14.26;54.27
10460;BME280;54412;51.206;6.888;2023-03-22T11:31:18;100129.69;;;14.13;53.51
10460;BME280;54412;51.206;6.888;2023-03-22T11:33:57;100134.66;;;14.05;53.77
10460;BME280;54412;51.206;6.888;2023-03-22T11:36:24;100137.56;;;14.02;54.38
10460;BME280;54412;51.206;6.888;2023-03-22T11:38:59;100117.34;;;14.12;54.19
10460;BME280;54412;51.206;6.888;2023-03-22T11:41:38;100143.16;;;13.98;53.78
10460;BME280;54412;51.206;6.888;2023-03-22T11:44:11;100138.63;;;13.87;53.95
10460;BME280;54412;51.206;6.888;2023-03-22T11:46:38;100140.88;;;13.81;53.95
10460;BME280;54412;51.206;6.888;2023-03-22T11:49:16;100135.25;;;13.85;54.15
10460;BME280;54412;51.206;6.888;2023-03-22T11:51:43;100124.56;;;13.87;54.34
10460;BME280;54412;51.206;6.888;2023-03-22T11:54:28;100124.53;;;13.99;53.72
10460;BME280;54412;51.206;6.888;2023-03-22T11:56:58;100120.13;;;14.11;53.88
10460;BME280;54412;51.206;6.888;2023-03-22T11:59:37;100117.34;;;14.12;53.76
10460;BME280;54412;51.206;6.888;2023-03-22T12:02:34;100113.75;;;14.13;53.44
10460;BME280;54412;51.206;6.888;2023-03-22T12:05:27;100109.59;;;14.22;53.35
10460;BME280;54412;51.206;6.888;2023-03-22T12:08:07;100115.25;;;14.17;53.42
10460;BME280;54412;51.206;6.888;2023-03-22T12:10:45;100104.94;;;14.13;53.30
10460;BME280;54412;51.206;6.888;2023-03-22T12:16:12;100108.09;;;13.82;52.98
10460;BME280;54412;51.206;6.888;2023-03-22T12:19:15;100102.28;;;13.77;53.54
10460;BME280;54412;51.206;6.888;2023-03-22T12:21:44;100090.56;;;14.04;53.10
10460;BME280;54412;51.206;6.888;2023-03-22T12:24:27;100099.09;;;13.84;53.73
10460;BME280;54412;51.206;6.888;2023-03-22T12:26:59;100101.22;;;13.92;54.10
10460;BME280;54412;51.206;6.888;2023-03-22T12:29:29;100090.78;;;14.01;53.68
10460;BME280;54412;51.206;6.888;2023-03-22T12:32:11;100090.88;;;14.00;53.85
10460;BME280;54412;51.206;6.888;2023-03-22T12:34:46;100093.97;;;14.06;53.92
10460;BME280;54412;51.206;6.888;2023-03-22T12:37:34;100089.88;;;13.90;54.75
10460;BME280;54412;51.206;6.888;2023-03-22T12:40:13;100086.44;;;14.00;54.66
10460;BME280;54412;51.206;6.888;2023-03-22T12:45:26;100091.41;;;14.05;54.06
10460;BME280;54412;51.206;6.888;2023-03-22T12:48:09;100094.97;;;14.16;54.46
10460;BME280;54412;51.206;6.888;2023-03-22T12:51:09;100096.88;;;14.14;54.70
10460;BME280;54412;51.206;6.888;2023-03-22T12:53:46;100086.06;;;14.17;55.59
10460;BME280;54412;51.206;6.888;2023-03-22T12:56:44;100089.72;;;14.04;57.30
10460;BME280;54412;51.206;6.888;2023-03-22T12:59:21;100093.22;;;14.04;56.56
10460;BME280;54412;51.206;6.888;2023-03-22T13:27:59;100101.09;;;13.93;57.00
10460;BME280;54412;51.206;6.888;2023-03-22T13:30:57;100087.44;;;13.87;57.81
10460;BME280;54412;51.206;6.888;2023-03-22T13:33:29;100093.06;;;13.82;58.22
10460;BME280;54412;51.206;6.888;2023-03-22T13:38:36;100079.88;;;13.93;58.11
10460;BME280;54412;51.206;6.888;2023-03-22T14:02:33;100070.38;;;13.78;58.57
10460;BME280;54412;51.206;6.888;2023-03-22T14:05:13;100073.50;;;13.72;58.67
10460;BME280;54412;51.206;6.888;2023-03-22T14:07:52;100067.63;;;13.80;58.16
10460;BME280;54412;51.206;6.888;2023-03-22T14:13:34;100054.34;;;13.92;58.14
10460;BME280;54412;51.206;6.888;2023-03-22T14:16:20;100058.06;;;13.90;58.82
10460;BME280;54412;51.206;6.888;2023-03-22T14:18:48;100064.28;;;14.01;58.34
10460;BME280;54412;51.206;6.888;2023-03-22T14:21:26;100054.00;;;13.97;58.50
10460;BME280;54412;51.206;6.888;2023-03-22T14:23:55;100052.09;;;13.99;58.86
10460;BME280;54412;51.206;6.888;2023-03-22T14:26:29;100048.94;;;13.94;58.71
10460;BME280;54412;51.206;6.888;2023-03-22T14:29:13;100042.81;;;13.81;59.48
10460;BME280;54412;51.206;6.888;2023-03-22T14:31:39;100042.09;;;14.02;59.26
10460;BME280;54412;51.206;6.888;2023-03-22T14:34:11;100037.84;;;14.00;59.11
10460;BME280;54412;51.206;6.888;2023-03-22T14:36:42;100036.63;;;14.16;59.13
10460;BME280;54412;51.206;6.888;2023-03-22T14:39:21;100038.91;;;14.10;59.49
10460;BME280;54412;51.206;6.888;2023-03-22T14:42:03;100036.34;;;14.08;60.01
10460;BME280;54412;51.206;6.888;2023-03-22T14:44:48;100030.50;;;13.92;60.04
10460;BME280;54412;51.206;6.888;2023-03-22T14:47:18;100028.91;;;13.90;60.60
10460;BME280;54412;51.206;6.888;2023-03-22T14:49:48;100026.44;;;13.99;59.93